createdAt,value
2022-08-26T00:00:53.233Z,47.23
2022-08-26T00:03:22.444Z,68.03
2022-08-26T00:05:51.886Z,49.20
2022-08-26T00:08:22.380Z,38.30
2022-08-26T00:10:51.259Z,49.63
2022-08-26T00:13:20.089Z,53.07
2022-08-26T00:15:51.312Z,49.77
2022-08-26T00:18:22.366Z,47.10
2022-08-26T00:20:51.731Z,49.10
2022-08-26T00:23:20.416Z,46.53
2022-08-26T00:25:53.871Z,47.93
2022-08-26T00:28:22.765Z,53.80
2022-08-26T00:30:54.149Z,48.37
2022-08-26T00:33:23.292Z,61.93
2022-08-26T00:35:52.050Z,49.10
2022-08-26T00:38:22.953Z,49.83
2022-08-26T00:40:53.969Z,50.20
2022-08-26T00:43:23.936Z,37.67
2022-08-26T00:45:59.870Z,41.33
2022-08-26T00:48:33.711Z,42.00
2022-08-26T00:51:07.761Z,55.87
2022-08-26T00:53:42.531Z,42.83
2022-08-26T00:56:19.163Z,60.43
2022-08-26T00:58:48.171Z,42.83
2022-08-26T01:01:19.447Z,44.77
2022-08-26T01:03:51.896Z,48.27
2022-08-26T01:06:20.959Z,63.23
2022-08-26T01:08:49.765Z,65.97
2022-08-26T01:11:18.350Z,43.97
2022-08-26T01:13:47.552Z,56.37
2022-08-26T01:16:18.659Z,43.77
2022-08-26T01:18:49.611Z,50.57
2022-08-26T01:21:23.930Z,54.33
2022-08-26T01:23:57.532Z,51.10
2022-08-26T01:26:30.510Z,41.13
2022-08-26T01:29:03.025Z,43.23
2022-08-26T01:31:41.762Z,59.17
2022-08-26T01:34:15.736Z,60.27
2022-08-26T01:36:47.919Z,58.37
2022-08-26T01:39:21.125Z,48.40
2022-08-26T01:41:53.671Z,57.60
2022-08-26T01:44:26.485Z,53.87
2022-08-26T01:46:56.365Z,49.10
2022-08-26T01:49:26.895Z,61.03
2022-08-26T01:51:58.152Z,59.07
2022-08-26T01:54:28.337Z,69.57
2022-08-26T01:56:58.381Z,46.13
2022-08-26T01:59:27.373Z,55.00
2022-08-26T02:01:55.903Z,53.83
2022-08-26T02:04:29.998Z,49.63
2022-08-26T02:06:59.266Z,51.63
2022-08-26T02:09:29.449Z,68.87
2022-08-26T02:12:01.647Z,53.70
2022-08-26T02:14:34.190Z,52.63
2022-08-26T02:17:03.614Z,54.03
2022-08-26T02:19:40.148Z,64.03
2022-08-26T02:22:13.815Z,49.40
2022-08-26T02:24:54.799Z,48.50
2022-08-26T02:27:28.156Z,49.47
2022-08-26T02:30:08.051Z,53.43
2022-08-26T02:32:36.533Z,55.40
2022-08-26T02:35:05.392Z,52.83
2022-08-26T02:37:34.409Z,39.93
2022-08-26T02:40:05.951Z,56.07
2022-08-26T02:42:34.555Z,52.20
2022-08-26T02:45:04.065Z,49.90
2022-08-26T02:47:34.435Z,61.03
2022-08-26T02:50:03.899Z,52.13
2022-08-26T02:52:32.453Z,57.80
2022-08-26T02:55:01.153Z,60.27
2022-08-26T02:57:32.267Z,59.60
2022-08-26T03:00:01.750Z,55.17
2022-08-26T03:02:31.413Z,60.07
2022-08-26T03:05:02.064Z,54.70
2022-08-26T03:07:31.298Z,57.37
2022-08-26T03:10:00.688Z,47.73
2022-08-26T03:12:29.401Z,51.23
2022-08-26T03:14:59.827Z,60.73
2022-08-26T03:17:29.003Z,50.53
2022-08-26T03:19:58.460Z,68.50
2022-08-26T03:22:27.646Z,50.20
2022-08-26T03:24:56.552Z,50.93
2022-08-26T03:27:25.114Z,48.27
2022-08-26T03:30:11.783Z,46.60
2022-08-26T03:32:42.073Z,52.13
2022-08-26T03:35:11.257Z,50.27
2022-08-26T03:37:40.248Z,58.30
2022-08-26T03:40:11.521Z,40.70
2022-08-26T03:42:40.828Z,47.70
2022-08-26T03:45:15.418Z,45.07
2022-08-26T03:47:46.469Z,47.37
2022-08-26T03:50:22.951Z,49.43
2022-08-26T03:52:54.157Z,60.67
2022-08-26T03:55:25.494Z,53.50
2022-08-26T03:57:55.841Z,51.83
2022-08-26T04:00:24.888Z,46.37
2022-08-26T04:02:55.253Z,41.47
2022-08-26T04:05:24.422Z,45.00
2022-08-26T04:07:53.071Z,53.80
2022-08-26T04:10:28.544Z,63.00
2022-08-26T04:12:58.903Z,57.87
2022-08-26T04:15:28.400Z,44.40
2022-08-26T04:17:58.417Z,46.00
2022-08-26T04:20:27.442Z,42.77
2022-08-26T04:22:56.737Z,43.73
2022-08-26T04:25:25.688Z,59.83
2022-08-26T04:27:54.947Z,43.73
2022-08-26T04:30:23.604Z,55.13
2022-08-26T04:33:12.916Z,48.27
2022-08-26T04:35:44.040Z,50.67
2022-08-26T04:38:12.629Z,50.87
2022-08-26T04:40:46.841Z,39.80
2022-08-26T04:43:15.680Z,51.07
2022-08-26T04:45:44.529Z,53.97
2022-08-26T04:48:15.123Z,70.30
2022-08-26T04:50:46.880Z,48.50
2022-08-26T04:53:18.202Z,57.90
2022-08-26T04:55:48.558Z,48.20
2022-08-26T04:58:17.760Z,44.77
2022-08-26T05:00:46.867Z,53.47
2022-08-26T05:03:17.640Z,71.90
2022-08-26T05:05:47.772Z,51.63
2022-08-26T05:08:17.998Z,63.00
2022-08-26T05:10:54.647Z,67.07
2022-08-26T05:13:26.664Z,85.30
2022-08-26T05:15:55.690Z,75.03
2022-08-26T05:18:31.223Z,71.73
2022-08-26T05:20:59.717Z,79.60
2022-08-26T05:23:31.469Z,80.23
2022-08-26T05:26:01.094Z,73.53
2022-08-26T05:28:33.625Z,66.53
2022-08-26T05:31:02.297Z,69.63
2022-08-26T05:33:32.415Z,74.60
2022-08-26T05:36:09.303Z,72.57
2022-08-26T05:38:37.889Z,59.63
2022-08-26T05:41:14.602Z,45.53
2022-08-26T05:43:45.294Z,47.90
2022-08-26T05:46:14.510Z,46.73
2022-08-26T05:48:44.602Z,57.73
2022-08-26T05:51:13.932Z,48.10
2022-08-26T05:53:43.951Z,53.43
2022-08-26T05:56:24.915Z,37.43
2022-08-26T05:58:53.593Z,51.70
2022-08-26T06:01:25.680Z,46.17
2022-08-26T06:04:01.699Z,39.87
2022-08-26T06:06:33.766Z,39.53
2022-08-26T06:09:05.315Z,31.97
2022-08-26T06:11:34.748Z,43.53
2022-08-26T06:14:06.429Z,42.43
2022-08-26T06:16:38.205Z,45.47
2022-08-26T06:19:10.427Z,44.80
2022-08-26T06:21:41.540Z,42.73
2022-08-26T06:24:30.164Z,41.33
2022-08-26T06:27:01.468Z,35.63
2022-08-26T06:29:33.545Z,51.83
2022-08-26T06:32:03.587Z,49.00
2022-08-26T06:34:33.877Z,46.93
2022-08-26T06:37:03.969Z,50.13
2022-08-26T06:39:35.321Z,43.37
2022-08-26T06:42:10.802Z,37.87
2022-08-26T06:44:41.629Z,42.30
2022-08-26T06:47:13.308Z,43.00
2022-08-26T06:49:44.252Z,46.53
2022-08-26T06:52:12.903Z,50.33
2022-08-26T06:54:43.215Z,34.50
2022-08-26T06:57:13.088Z,37.47
2022-08-26T06:59:43.190Z,39.07
2022-08-26T07:02:13.517Z,40.90
2022-08-26T07:04:44.418Z,50.70
2022-08-26T07:07:16.628Z,40.87
2022-08-26T07:09:46.807Z,44.43
2022-08-26T07:12:18.330Z,47.23
2022-08-26T07:14:47.469Z,35.13
2022-08-26T07:17:16.998Z,60.83
2022-08-26T07:19:48.613Z,53.33
2022-08-26T07:22:18.426Z,37.30
2022-08-26T07:24:47.246Z,43.23
2022-08-26T07:27:17.343Z,48.80
2022-08-26T07:29:45.963Z,40.03
2022-08-26T07:32:17.060Z,50.53
2022-08-26T07:34:47.949Z,35.17
2022-08-26T07:37:17.616Z,52.40
2022-08-26T07:39:46.276Z,37.33
2022-08-26T07:42:16.865Z,45.77
2022-08-26T07:44:47.314Z,44.27
2022-08-26T07:47:25.086Z,50.53
2022-08-26T07:49:57.469Z,38.30
2022-08-26T07:52:27.606Z,49.03
2022-08-26T07:54:56.642Z,38.63
2022-08-26T07:57:25.291Z,38.23
2022-08-26T07:59:55.189Z,44.50
2022-08-26T08:02:25.486Z,40.33
2022-08-26T08:04:56.812Z,43.97
2022-08-26T08:07:38.694Z,35.73
2022-08-26T08:10:15.232Z,50.83
2022-08-26T08:12:45.149Z,35.27
2022-08-26T08:15:15.463Z,37.97
2022-08-26T08:17:44.456Z,36.03
2022-08-26T08:20:15.627Z,38.77
2022-08-26T08:22:44.252Z,64.30
2022-08-26T08:25:14.729Z,37.23
2022-08-26T08:27:45.094Z,43.53
2022-08-26T08:30:14.890Z,38.27
2022-08-26T08:32:49.984Z,49.47
2022-08-26T08:35:22.495Z,32.57
2022-08-26T08:37:54.374Z,38.43
2022-08-26T08:40:26.295Z,36.93
2022-08-26T08:43:00.032Z,44.40
2022-08-26T08:45:36.585Z,36.63
2022-08-26T08:48:11.680Z,40.00
2022-08-26T08:50:45.974Z,28.60
2022-08-26T08:53:17.907Z,32.40
2022-08-26T08:55:56.393Z,37.97
2022-08-26T08:58:36.254Z,46.73
2022-08-26T09:01:10.061Z,38.43
2022-08-26T09:03:50.017Z,43.03
2022-08-26T09:06:20.515Z,33.67
2022-08-26T09:08:51.533Z,55.13
2022-08-26T09:11:21.437Z,37.00
2022-08-26T09:13:53.964Z,27.50
2022-08-26T09:16:31.898Z,33.07
2022-08-26T09:19:18.764Z,37.43
2022-08-26T09:21:57.431Z,36.97
2022-08-26T09:24:28.509Z,44.87
2022-08-26T09:26:59.240Z,51.17
2022-08-26T09:29:30.618Z,47.23
2022-08-26T09:32:16.243Z,52.20
2022-08-26T09:34:57.715Z,56.10
2022-08-26T09:37:43.099Z,37.63
2022-08-26T09:40:29.165Z,44.20
2022-08-26T09:43:10.708Z,29.67
2022-08-26T09:45:41.717Z,43.40
2022-08-26T09:48:30.213Z,28.03
2022-08-26T09:51:02.591Z,40.57
2022-08-26T09:53:36.602Z,33.77
2022-08-26T09:56:17.987Z,38.33
2022-08-26T09:58:48.648Z,29.13
2022-08-26T10:01:27.335Z,42.57
2022-08-26T10:04:07.848Z,39.63
2022-08-26T10:06:40.250Z,37.67
2022-08-26T10:09:14.767Z,34.83
2022-08-26T10:11:48.212Z,39.10
2022-08-26T10:14:25.004Z,46.00
2022-08-26T10:17:00.525Z,29.83
2022-08-26T10:19:55.560Z,46.83
2022-08-26T10:22:28.704Z,42.07
2022-08-26T10:25:03.310Z,27.10
2022-08-26T10:27:41.459Z,51.27
2022-08-26T10:30:22.778Z,40.00
2022-08-26T10:32:57.193Z,33.67
2022-08-26T10:35:27.036Z,36.10
2022-08-26T10:37:59.485Z,41.80
2022-08-26T10:40:36.724Z,32.27
2022-08-26T10:43:11.102Z,35.93
2022-08-26T10:45:44.297Z,39.23
2022-08-26T10:48:19.116Z,42.80
2022-08-26T10:50:49.981Z,44.07
2022-08-26T10:53:24.914Z,48.07
2022-08-26T10:56:02.314Z,33.60
2022-08-26T10:58:56.617Z,47.63
2022-08-26T11:01:43.036Z,52.70
2022-08-26T11:04:27.151Z,36.47
2022-08-26T11:07:29.168Z,44.37
2022-08-26T11:10:01.455Z,49.83
2022-08-26T11:12:53.423Z,39.43
2022-08-26T11:16:10.460Z,34.33
2022-08-26T11:18:44.941Z,23.60
2022-08-26T11:21:47.773Z,27.93
2022-08-26T11:24:40.702Z,26.60
2022-08-26T11:27:12.340Z,37.83
2022-08-26T11:30:04.920Z,29.07
2022-08-26T11:32:58.311Z,33.73
2022-08-26T11:35:50.341Z,27.17
2022-08-26T11:38:26.478Z,23.40
2022-08-26T11:41:07.728Z,23.63
2022-08-26T11:43:38.747Z,24.10
2022-08-26T11:46:11.418Z,26.37
2022-08-26T11:48:42.454Z,23.10
2022-08-26T11:51:13.645Z,19.17
2022-08-26T11:53:47.314Z,13.00
2022-08-26T11:56:25.536Z,23.23
2022-08-26T11:58:58.228Z,20.00
2022-08-26T12:01:31.183Z,17.17
2022-08-26T12:04:01.389Z,14.60
2022-08-26T12:06:36.375Z,15.00
2022-08-26T12:09:15.847Z,29.73
2022-08-26T12:11:44.375Z,35.47
2022-08-26T12:14:19.520Z,12.50
2022-08-26T12:16:49.714Z,15.17
2022-08-26T12:19:26.400Z,18.03
2022-08-26T12:21:59.999Z,17.60
2022-08-26T12:24:28.767Z,23.83
2022-08-26T12:27:14.314Z,22.13
2022-08-26T12:29:42.943Z,18.40
2022-08-26T12:32:19.743Z,10.20
2022-08-26T12:34:50.044Z,13.37
2022-08-26T12:37:19.458Z,7.70
2022-08-26T12:39:49.329Z,8.10
2022-08-26T12:42:41.230Z,12.93
2022-08-26T12:45:11.075Z,13.07
2022-08-26T12:47:44.124Z,20.20
2022-08-26T12:50:18.460Z,16.50
2022-08-26T12:52:58.529Z,14.43
2022-08-26T12:55:36.424Z,23.57
2022-08-26T12:58:14.948Z,15.60
2022-08-26T13:00:45.029Z,16.67
2022-08-26T13:03:38.508Z,12.93
2022-08-26T13:06:15.867Z,16.50
2022-08-26T13:08:46.339Z,14.00
2022-08-26T13:11:18.599Z,14.10
2022-08-26T13:13:47.911Z,13.50
2022-08-26T13:16:17.000Z,13.77
2022-08-26T13:18:48.148Z,14.53
2022-08-26T13:21:20.614Z,20.80
2022-08-26T13:23:50.319Z,20.80
2022-08-26T13:26:19.238Z,15.70
2022-08-26T13:28:48.650Z,18.07
2022-08-26T13:31:32.405Z,13.50
2022-08-26T13:34:03.726Z,16.53
2022-08-26T13:36:32.312Z,9.50
2022-08-26T13:39:01.075Z,15.07
2022-08-26T13:41:29.857Z,20.50
2022-08-26T13:43:59.388Z,20.57
2022-08-26T13:46:28.990Z,13.53
2022-08-26T13:48:57.905Z,10.77
2022-08-26T13:51:28.935Z,17.50
2022-08-26T13:53:58.432Z,8.90
2022-08-26T13:56:29.638Z,12.93
2022-08-26T13:58:59.491Z,8.37
2022-08-26T14:01:29.649Z,13.37
2022-08-26T14:03:58.343Z,53.17
2022-08-26T14:06:28.338Z,30.63
2022-08-26T14:08:56.923Z,27.93
2022-08-26T14:11:25.710Z,27.43
2022-08-26T14:13:54.269Z,51.30
2022-08-26T14:16:26.837Z,28.80
2022-08-26T14:18:55.804Z,59.73
2022-08-26T14:21:25.046Z,13.00
2022-08-26T14:24:00.297Z,17.83
2022-08-26T14:26:30.079Z,10.60
2022-08-26T14:28:59.578Z,12.53
2022-08-26T14:31:29.333Z,10.80
2022-08-26T14:34:00.994Z,10.90
2022-08-26T14:36:31.288Z,12.47
2022-08-26T14:39:04.536Z,15.80
2022-08-26T14:41:35.427Z,25.60
2022-08-26T14:44:06.440Z,14.83
2022-08-26T14:46:40.373Z,16.97
2022-08-26T14:49:10.730Z,19.40
2022-08-26T14:51:39.597Z,15.77
2022-08-26T14:54:13.080Z,18.93
2022-08-26T14:56:47.203Z,13.23
2022-08-26T14:59:18.534Z,19.53
2022-08-26T15:01:47.602Z,13.13
2022-08-26T15:04:16.947Z,23.57
2022-08-26T15:06:45.538Z,14.20
2022-08-26T15:09:16.525Z,17.30
2022-08-26T15:11:45.077Z,4.83
2022-08-26T15:14:19.358Z,16.60
2022-08-26T15:16:48.837Z,14.37
2022-08-26T15:19:18.146Z,8.07
2022-08-26T15:21:47.658Z,12.50
2022-08-26T15:24:20.143Z,9.83
2022-08-26T15:26:49.752Z,8.60
2022-08-26T15:29:19.040Z,9.83
2022-08-26T15:31:48.700Z,17.20
2022-08-26T15:34:17.709Z,9.10
2022-08-26T15:36:47.537Z,13.43
2022-08-26T15:39:18.094Z,14.67
2022-08-26T15:41:47.463Z,19.57
2022-08-26T15:44:19.705Z,21.90
2022-08-26T15:46:55.295Z,14.83
2022-08-26T15:49:26.684Z,14.57
2022-08-26T15:51:55.531Z,20.63
2022-08-26T15:54:25.816Z,19.57
2022-08-26T15:56:57.545Z,12.17
2022-08-26T15:59:26.856Z,12.90
2022-08-26T16:01:55.678Z,17.80
2022-08-26T16:04:24.420Z,16.13
2022-08-26T16:06:53.501Z,10.87
2022-08-26T16:09:27.137Z,14.30
2022-08-26T16:11:56.252Z,14.73
2022-08-26T16:14:26.021Z,7.97
2022-08-26T16:16:56.384Z,29.60
2022-08-26T16:19:25.202Z,18.90
2022-08-26T16:21:53.772Z,18.27
2022-08-26T16:24:25.983Z,17.10
2022-08-26T16:26:58.540Z,19.87
2022-08-26T16:29:27.481Z,36.03
2022-08-26T16:31:56.244Z,21.20
2022-08-26T16:34:25.046Z,25.80
2022-08-26T16:36:53.824Z,19.33
2022-08-26T16:39:22.458Z,89.53
2022-08-26T16:41:51.090Z,39.40
2022-08-26T16:44:22.221Z,52.97
2022-08-26T16:46:50.934Z,14.70
2022-08-26T16:49:27.045Z,12.97
2022-08-26T16:51:55.575Z,15.47
2022-08-26T16:54:24.086Z,25.70
2022-08-26T16:56:52.668Z,12.53
2022-08-26T16:59:22.584Z,13.53
2022-08-26T17:01:51.233Z,16.30
2022-08-26T17:04:20.067Z,11.23
2022-08-26T17:06:48.619Z,12.17
2022-08-26T17:09:17.164Z,17.77
2022-08-26T17:11:45.946Z,17.43
2022-08-26T17:14:14.619Z,15.03
2022-08-26T17:16:44.608Z,17.20
2022-08-26T17:19:13.289Z,20.40
2022-08-26T17:21:41.890Z,10.10
2022-08-26T17:24:10.441Z,17.40
2022-08-26T17:26:39.189Z,13.97
2022-08-26T17:29:08.310Z,12.90
2022-08-26T17:31:36.846Z,15.40
2022-08-26T17:34:07.211Z,9.30
2022-08-26T17:36:36.109Z,13.80
2022-08-26T17:39:04.836Z,13.43
2022-08-26T17:41:33.370Z,11.70
2022-08-26T17:44:01.899Z,13.00
2022-08-26T17:46:33.209Z,20.37
2022-08-26T17:49:02.918Z,20.33
2022-08-26T17:51:33.278Z,21.20
2022-08-26T17:54:01.802Z,19.87
2022-08-26T17:56:31.240Z,14.87
2022-08-26T17:59:03.514Z,11.03
2022-08-26T18:01:33.347Z,21.67
2022-08-26T18:04:02.001Z,17.87
2022-08-26T18:06:32.974Z,12.73
2022-08-26T18:09:02.093Z,16.40
2022-08-26T18:11:32.660Z,11.73
2022-08-26T18:14:01.635Z,11.83
2022-08-26T18:16:31.597Z,14.80
2022-08-26T18:19:00.386Z,14.37
2022-08-26T18:21:29.530Z,17.03
2022-08-26T18:23:59.683Z,16.80
2022-08-26T18:26:31.103Z,12.40
2022-08-26T18:29:00.024Z,13.73
2022-08-26T18:31:29.463Z,15.40
2022-08-26T18:34:00.147Z,15.07
2022-08-26T18:36:31.570Z,19.00
2022-08-26T18:39:02.280Z,21.00
2022-08-26T18:41:35.504Z,12.03
2022-08-26T18:44:04.416Z,17.80
2022-08-26T18:46:33.014Z,17.60
2022-08-26T18:49:01.685Z,13.50
2022-08-26T18:51:33.020Z,22.67
2022-08-26T18:54:05.779Z,15.33
2022-08-26T18:56:35.496Z,17.63
2022-08-26T18:59:04.213Z,15.80
2022-08-26T19:01:34.587Z,12.30
2022-08-26T19:04:05.209Z,28.00
2022-08-26T19:06:36.243Z,15.33
2022-08-26T19:09:08.532Z,14.50
2022-08-26T19:11:42.243Z,12.20
2022-08-26T19:14:14.822Z,17.03
2022-08-26T19:16:44.782Z,15.23
2022-08-26T19:19:13.804Z,14.50
2022-08-26T19:21:42.472Z,15.60
2022-08-26T19:24:17.371Z,19.60
2022-08-26T19:26:47.525Z,11.37
2022-08-26T19:31:50.329Z,31.73
2022-08-26T19:34:20.731Z,13.10
2022-08-26T19:36:49.504Z,23.40
2022-08-26T19:39:19.464Z,14.67
2022-08-26T19:41:48.071Z,13.53
2022-08-26T19:44:38.880Z,10.63
2022-08-26T19:47:09.533Z,18.53
2022-08-26T19:49:38.487Z,23.37
2022-08-26T19:52:07.608Z,22.50
2022-08-26T19:54:37.708Z,19.33
2022-08-26T19:57:06.707Z,12.87
2022-08-26T19:59:36.450Z,28.70
2022-08-26T20:02:10.082Z,25.93
2022-08-26T20:04:39.856Z,16.60
2022-08-26T20:07:09.055Z,14.57
2022-08-26T20:09:39.151Z,25.40
2022-08-26T20:12:08.953Z,22.43
2022-08-26T20:14:37.713Z,22.43
2022-08-26T20:17:06.886Z,18.70
2022-08-26T20:19:53.352Z,20.27
2022-08-26T20:22:22.346Z,10.20
2022-08-26T20:24:52.823Z,24.53
2022-08-26T20:27:27.506Z,14.83
2022-08-26T20:30:09.061Z,20.73
2022-08-26T20:32:38.429Z,12.43
2022-08-26T20:35:09.314Z,17.07
2022-08-26T20:37:39.374Z,11.00
2022-08-26T20:40:11.423Z,9.63
2022-08-26T20:42:40.164Z,15.97
2022-08-26T20:45:09.972Z,10.57
2022-08-26T20:47:38.965Z,16.83
2022-08-26T20:50:08.613Z,13.73
2022-08-26T20:52:37.331Z,16.03
2022-08-26T20:55:06.703Z,27.20
2022-08-26T20:57:37.378Z,21.00
2022-08-26T21:00:07.384Z,18.63
2022-08-26T21:02:37.035Z,22.40
2022-08-26T21:05:06.580Z,12.07
2022-08-26T21:07:36.331Z,15.57
2022-08-26T21:10:05.111Z,5.77
2022-08-26T21:12:35.551Z,16.07
2022-08-26T21:15:04.713Z,9.83
2022-08-26T21:17:33.633Z,9.43
2022-08-26T21:20:02.465Z,11.17
2022-08-26T21:22:31.364Z,9.90
2022-08-26T21:24:59.906Z,8.30
2022-08-26T21:27:28.509Z,25.70
2022-08-26T21:29:58.556Z,11.77
2022-08-26T21:32:27.188Z,7.33
2022-08-26T21:34:56.952Z,14.53
2022-08-26T21:37:26.596Z,11.70
2022-08-26T21:39:56.048Z,11.53
2022-08-26T21:42:25.418Z,13.40
2022-08-26T21:44:54.467Z,15.63
2022-08-26T21:47:25.452Z,16.20
2022-08-26T21:49:54.123Z,14.20
2022-08-26T21:52:22.886Z,8.07
2022-08-26T21:54:51.513Z,11.23
2022-08-26T21:57:21.041Z,12.60
2022-08-26T21:59:49.605Z,14.57
2022-08-26T22:02:18.280Z,10.47
2022-08-26T22:04:49.054Z,11.93
2022-08-26T22:07:19.144Z,18.53
2022-08-26T22:09:48.683Z,20.40
2022-08-26T22:12:18.347Z,29.07
2022-08-26T22:14:47.188Z,22.70
2022-08-26T22:17:15.999Z,12.77
2022-08-26T22:19:46.496Z,38.83
2022-08-26T22:22:16.863Z,32.70
2022-08-26T22:24:45.449Z,31.77
2022-08-26T22:27:14.730Z,31.43
2022-08-26T22:29:43.316Z,28.73
2022-08-26T22:32:11.977Z,22.90
2022-08-26T22:34:41.888Z,14.97
2022-08-26T22:37:10.443Z,38.03
2022-08-26T22:39:40.557Z,34.10
2022-08-26T22:42:09.249Z,21.13
2022-08-26T22:44:38.059Z,15.40
2022-08-26T22:47:07.757Z,16.70
2022-08-26T22:49:36.334Z,13.80
2022-08-26T22:52:05.256Z,17.23
2022-08-26T22:54:33.805Z,15.47
2022-08-26T22:57:03.855Z,15.90
2022-08-26T22:59:32.569Z,14.97
2022-08-26T23:02:01.172Z,20.17
2022-08-26T23:04:29.791Z,13.80
2022-08-26T23:06:58.331Z,22.63
2022-08-26T23:09:26.916Z,17.00
2022-08-26T23:11:56.465Z,19.40
2022-08-26T23:14:27.150Z,24.50
2022-08-26T23:16:55.694Z,23.17
2022-08-26T23:19:24.826Z,23.47
2022-08-26T23:21:53.558Z,23.17
2022-08-26T23:24:22.144Z,26.73
2022-08-26T23:26:50.708Z,33.90
2022-08-26T23:29:19.359Z,28.20
2022-08-26T23:31:49.303Z,30.63
2022-08-26T23:34:35.097Z,27.80
2022-08-26T23:37:06.733Z,23.50
2022-08-26T23:39:36.135Z,34.93
2022-08-26T23:42:06.586Z,27.83
2022-08-26T23:44:35.346Z,29.53
2022-08-26T23:47:05.726Z,27.37
2022-08-26T23:49:35.388Z,31.77
2022-08-26T23:52:22.623Z,32.73
2022-08-26T23:54:52.346Z,34.57
2022-08-26T23:57:23.849Z,43.37
2022-08-26T23:59:53.290Z,38.90
